sensor_id;sensor_type;location;lat;lon;timestamp;temperature;humidity
11772;DHT22;12556;55.748;13.194;2022-10-15T00:01:14;12.10;99.90
11772;DHT22;12556;55.748;13.194;2022-10-15T00:03:43;12.20;99.90
11772;DHT22;12556;55.748;13.194;2022-10-15T00:06:12;12.10;99.90
11772;DHT22;12556;55.748;13.194;2022-10-15T00:08:40;12.10;99.90
11772;DHT22;12556;55.748;13.194;2022-10-15T00:11:10;12.10;99.90
11772;DHT22;12556;55.748;13.194;2022-10-15T00:13:38;12.10;99.90
11772;DHT22;12556;55.748;13.194;2022-10-15T00:16:07;12.00;99.90
11772;DHT22;12556;55.748;13.194;2022-10-15T00:18:34;12.00;99.90
11772;DHT22;12556;55.748;13.194;2022-10-15T00:21:04;12.00;99.90
11772;DHT22;12556;55.748;13.194;2022-10-15T00:23:31;12.10;99.90
11772;DHT22;12556;55.748;13.194;2022-10-15T00:26:03;12.10;99.90
11772;DHT22;12556;55.748;13.194;2022-10-15T00:28:32;12.10;99.90
11772;DHT22;12556;55.748;13.194;2022-10-15T00:31:00;12.10;99.90
11772;DHT22;12556;55.748;13.194;2022-10-15T00:33:27;12.10;99.90
11772;DHT22;12556;55.748;13.194;2022-10-15T00:35:58;12.10;99.90
11772;DHT22;12556;55.748;13.194;2022-10-15T00:38:25;12.10;99.90
11772;DHT22;12556;55.748;13.194;2022-10-15T00:40:52;12.10;99.90
11772;DHT22;12556;55.748;13.194;2022-10-15T00:46:19;12.20;99.90
11772;DHT22;12556;55.748;13.194;2022-10-15T00:48:49;12.20;99.90
11772;DHT22;12556;55.748;13.194;2022-10-15T00:51:18;12.20;99.90
11772;DHT22;12556;55.748;13.194;2022-10-15T00:53:47;12.20;99.90
11772;DHT22;12556;55.748;13.194;2022-10-15T00:56:17;12.20;99.90
11772;DHT22;12556;55.748;13.194;2022-10-15T00:58:45;12.30;99.90
11772;DHT22;12556;55.748;13.194;2022-10-15T01:01:13;12.30;99.90
11772;DHT22;12556;55.748;13.194;2022-10-15T01:03:41;12.40;99.90
11772;DHT22;12556;55.748;13.194;2022-10-15T01:06:08;12.40;99.90
11772;DHT22;12556;55.748;13.194;2022-10-15T01:08:35;12.40;99.90
11772;DHT22;12556;55.748;13.194;2022-10-15T01:11:09;12.40;99.90
11772;DHT22;12556;55.748;13.194;2022-10-15T01:13:47;12.40;99.90
11772;DHT22;12556;55.748;13.194;2022-10-15T01:16:19;12.40;99.90
11772;DHT22;12556;55.748;13.194;2022-10-15T01:18:55;12.40;99.90
11772;DHT22;12556;55.748;13.194;2022-10-15T01:21:29;12.50;99.90
11772;DHT22;12556;55.748;13.194;2022-10-15T01:24:17;12.50;99.90
11772;DHT22;12556;55.748;13.194;2022-10-15T01:27:19;12.50;99.90
11772;DHT22;12556;55.748;13.194;2022-10-15T01:32:59;12.60;99.90
11772;DHT22;12556;55.748;13.194;2022-10-15T01:35:33;12.60;99.90
11772;DHT22;12556;55.748;13.194;2022-10-15T01:38:08;12.60;99.90
11772;DHT22;12556;55.748;13.194;2022-10-15T01:40:43;12.60;99.90
11772;DHT22;12556;55.748;13.194;2022-10-15T01:43:15;12.70;99.90
11772;DHT22;12556;55.748;13.194;2022-10-15T01:45:47;12.70;99.90
11772;DHT22;12556;55.748;13.194;2022-10-15T01:48:16;12.70;99.90
11772;DHT22;12556;55.748;13.194;2022-10-15T01:50:46;12.70;99.90
11772;DHT22;12556;55.748;13.194;2022-10-15T01:53:18;12.70;99.90
11772;DHT22;12556;55.748;13.194;2022-10-15T01:55:53;12.70;99.90
11772;DHT22;12556;55.748;13.194;2022-10-15T01:58:22;12.70;99.90
11772;DHT22;12556;55.748;13.194;2022-10-15T02:00:51;12.70;99.90
11772;DHT22;12556;55.748;13.194;2022-10-15T02:03:21;12.80;99.90
11772;DHT22;12556;55.748;13.194;2022-10-15T02:05:52;12.80;99.90
11772;DHT22;12556;55.748;13.194;2022-10-15T02:08:27;12.80;99.90
11772;DHT22;12556;55.748;13.194;2022-10-15T02:10:59;12.80;99.90
11772;DHT22;12556;55.748;13.194;2022-10-15T02:13:35;12.80;99.90
11772;DHT22;12556;55.748;13.194;2022-10-15T02:16:10;12.80;99.90
11772;DHT22;12556;55.748;13.194;2022-10-15T02:18:43;12.80;99.90
11772;DHT22;12556;55.748;13.194;2022-10-15T02:21:14;12.90;99.90
11772;DHT22;12556;55.748;13.194;2022-10-15T02:23:46;12.90;99.90
11772;DHT22;12556;55.748;13.194;2022-10-15T02:26:17;12.90;99.90
11772;DHT22;12556;55.748;13.194;2022-10-15T02:28:49;12.90;99.90
11772;DHT22;12556;55.748;13.194;2022-10-15T02:31:17;12.90;99.90
11772;DHT22;12556;55.748;13.194;2022-10-15T02:33:47;12.90;99.90
11772;DHT22;12556;55.748;13.194;2022-10-15T02:36:17;12.90;99.90
11772;DHT22;12556;55.748;13.194;2022-10-15T02:38:45;12.90;99.90
11772;DHT22;12556;55.748;13.194;2022-10-15T02:41:13;12.90;99.90
11772;DHT22;12556;55.748;13.194;2022-10-15T02:43:40;12.90;99.90
11772;DHT22;12556;55.748;13.194;2022-10-15T02:46:09;12.90;99.90
11772;DHT22;12556;55.748;13.194;2022-10-15T02:48:36;12.90;99.90
11772;DHT22;12556;55.748;13.194;2022-10-15T02:51:04;13.00;99.90
11772;DHT22;12556;55.748;13.194;2022-10-15T02:53:32;13.00;99.90
11772;DHT22;12556;55.748;13.194;2022-10-15T02:55:59;13.00;99.90
11772;DHT22;12556;55.748;13.194;2022-10-15T02:58:25;13.00;99.90
11772;DHT22;12556;55.748;13.194;2022-10-15T03:00:53;13.00;99.90
11772;DHT22;12556;55.748;13.194;2022-10-15T03:03:20;13.00;99.90
11772;DHT22;12556;55.748;13.194;2022-10-15T03:05:47;13.00;99.90
11772;DHT22;12556;55.748;13.194;2022-10-15T03:08:16;13.00;99.90
11772;DHT22;12556;55.748;13.194;2022-10-15T03:10:43;13.00;99.90
11772;DHT22;12556;55.748;13.194;2022-10-15T03:13:11;13.00;99.90
11772;DHT22;12556;55.748;13.194;2022-10-15T03:15:38;13.00;99.90
11772;DHT22;12556;55.748;13.194;2022-10-15T03:18:05;13.00;99.90
11772;DHT22;12556;55.748;13.194;2022-10-15T03:20:32;13.00;99.90
11772;DHT22;12556;55.748;13.194;2022-10-15T03:22:59;13.00;99.90
11772;DHT22;12556;55.748;13.194;2022-10-15T03:25:28;13.00;99.90
11772;DHT22;12556;55.748;13.194;2022-10-15T03:27:55;12.90;99.90
11772;DHT22;12556;55.748;13.194;2022-10-15T03:30:22;12.90;99.90
11772;DHT22;12556;55.748;13.194;2022-10-15T03:32:49;12.90;99.90
11772;DHT22;12556;55.748;13.194;2022-10-15T03:35:16;12.90;99.90
11772;DHT22;12556;55.748;13.194;2022-10-15T03:37:43;13.00;99.90
11772;DHT22;12556;55.748;13.194;2022-10-15T03:40:11;13.00;99.90
11772;DHT22;12556;55.748;13.194;2022-10-15T03:42:39;13.00;99.90
11772;DHT22;12556;55.748;13.194;2022-10-15T03:45:07;13.00;99.90
11772;DHT22;12556;55.748;13.194;2022-10-15T03:47:34;13.00;99.90
11772;DHT22;12556;55.748;13.194;2022-10-15T03:50:01;13.00;99.90
11772;DHT22;12556;55.748;13.194;2022-10-15T03:52:28;13.00;99.90
11772;DHT22;12556;55.748;13.194;2022-10-15T03:54:55;13.00;99.90
11772;DHT22;12556;55.748;13.194;2022-10-15T03:57:22;13.00;99.90
11772;DHT22;12556;55.748;13.194;2022-10-15T03:59:50;13.00;99.90
11772;DHT22;12556;55.748;13.194;2022-10-15T04:02:17;13.10;99.90
11772;DHT22;12556;55.748;13.194;2022-10-15T04:04:44;13.10;99.90
11772;DHT22;12556;55.748;13.194;2022-10-15T04:07:11;13.10;99.90
11772;DHT22;12556;55.748;13.194;2022-10-15T04:09:38;13.00;99.90
11772;DHT22;12556;55.748;13.194;2022-10-15T04:12:05;13.00;99.90
11772;DHT22;12556;55.748;13.194;2022-10-15T04:14:32;13.00;99.90
11772;DHT22;12556;55.748;13.194;2022-10-15T04:17:00;13.10;99.90
11772;DHT22;12556;55.748;13.194;2022-10-15T04:19:27;13.00;99.90
11772;DHT22;12556;55.748;13.194;2022-10-15T04:21:55;13.00;99.90
11772;DHT22;12556;55.748;13.194;2022-10-15T04:24:22;13.00;99.90
11772;DHT22;12556;55.748;13.194;2022-10-15T04:26:49;13.00;99.90
11772;DHT22;12556;55.748;13.194;2022-10-15T04:29:16;13.10;99.90
11772;DHT22;12556;55.748;13.194;2022-10-15T04:31:43;13.00;99.90
11772;DHT22;12556;55.748;13.194;2022-10-15T04:34:11;13.10;99.90
11772;DHT22;12556;55.748;13.194;2022-10-15T04:36:38;13.10;99.90
11772;DHT22;12556;55.748;13.194;2022-10-15T04:39:06;13.00;99.90
11772;DHT22;12556;55.748;13.194;2022-10-15T04:41:33;13.00;99.90
11772;DHT22;12556;55.748;13.194;2022-10-15T04:44:00;13.00;99.90
11772;DHT22;12556;55.748;13.194;2022-10-15T04:46:26;13.10;99.90
11772;DHT22;12556;55.748;13.194;2022-10-15T04:48:54;13.00;99.90
11772;DHT22;12556;55.748;13.194;2022-10-15T04:51:24;13.00;99.90
11772;DHT22;12556;55.748;13.194;2022-10-15T04:53:51;13.00;99.90
11772;DHT22;12556;55.748;13.194;2022-10-15T04:56:19;13.00;99.90
11772;DHT22;12556;55.748;13.194;2022-10-15T04:58:48;13.00;99.90
11772;DHT22;12556;55.748;13.194;2022-10-15T05:01:17;13.10;99.90
11772;DHT22;12556;55.748;13.194;2022-10-15T05:03:46;13.00;99.90
11772;DHT22;12556;55.748;13.194;2022-10-15T05:06:15;13.10;99.90
11772;DHT22;12556;55.748;13.194;2022-10-15T05:08:44;13.10;99.90
11772;DHT22;12556;55.748;13.194;2022-10-15T05:11:12;13.10;99.90
11772;DHT22;12556;55.748;13.194;2022-10-15T05:13:40;13.10;99.90
11772;DHT22;12556;55.748;13.194;2022-10-15T05:16:11;13.10;99.90
11772;DHT22;12556;55.748;13.194;2022-10-15T05:18:39;13.10;99.90
11772;DHT22;12556;55.748;13.194;2022-10-15T05:21:06;13.10;99.90
11772;DHT22;12556;55.748;13.194;2022-10-15T05:23:34;13.20;99.90
11772;DHT22;12556;55.748;13.194;2022-10-15T05:26:05;13.10;99.90
11772;DHT22;12556;55.748;13.194;2022-10-15T05:28:33;13.20;99.90
11772;DHT22;12556;55.748;13.194;2022-10-15T05:31:04;13.10;99.90
11772;DHT22;12556;55.748;13.194;2022-10-15T05:33:31;13.20;99.90
11772;DHT22;12556;55.748;13.194;2022-10-15T05:36:07;13.10;99.90
11772;DHT22;12556;55.748;13.194;2022-10-15T05:38:34;13.20;99.90
11772;DHT22;12556;55.748;13.194;2022-10-15T05:41:02;13.20;99.90
11772;DHT22;12556;55.748;13.194;2022-10-15T05:43:29;13.20;99.90
11772;DHT22;12556;55.748;13.194;2022-10-15T05:45:56;13.10;99.90
11772;DHT22;12556;55.748;13.194;2022-10-15T05:48:23;13.10;99.90
11772;DHT22;12556;55.748;13.194;2022-10-15T05:50:50;13.20;99.90
11772;DHT22;12556;55.748;13.194;2022-10-15T05:53:17;13.20;99.90
11772;DHT22;12556;55.748;13.194;2022-10-15T05:55:44;13.20;99.90
11772;DHT22;12556;55.748;13.194;2022-10-15T05:58:12;13.20;99.90
11772;DHT22;12556;55.748;13.194;2022-10-15T06:00:39;13.20;99.90
11772;DHT22;12556;55.748;13.194;2022-10-15T06:03:11;13.20;99.90
11772;DHT22;12556;55.748;13.194;2022-10-15T06:05:40;13.20;99.90
11772;DHT22;12556;55.748;13.194;2022-10-15T06:08:07;13.20;99.90
11772;DHT22;12556;55.748;13.194;2022-10-15T06:10:35;13.20;99.90
11772;DHT22;12556;55.748;13.194;2022-10-15T06:13:02;13.20;99.90
11772;DHT22;12556;55.748;13.194;2022-10-15T06:15:30;13.20;99.90
11772;DHT22;12556;55.748;13.194;2022-10-15T06:17:57;13.20;99.90
11772;DHT22;12556;55.748;13.194;2022-10-15T06:20:24;13.20;99.90
11772;DHT22;12556;55.748;13.194;2022-10-15T06:22:56;13.20;99.90
11772;DHT22;12556;55.748;13.194;2022-10-15T06:25:23;13.20;99.90
11772;DHT22;12556;55.748;13.194;2022-10-15T06:27:50;13.20;99.90
11772;DHT22;12556;55.748;13.194;2022-10-15T06:30:17;13.20;99.90
11772;DHT22;12556;55.748;13.194;2022-10-15T06:32:48;13.20;99.90
11772;DHT22;12556;55.748;13.194;2022-10-15T06:35:16;13.20;99.90
11772;DHT22;12556;55.748;13.194;2022-10-15T06:37:43;13.30;99.90
11772;DHT22;12556;55.748;13.194;2022-10-15T06:40:11;13.20;99.90
11772;DHT22;12556;55.748;13.194;2022-10-15T06:42:38;13.20;99.90
11772;DHT22;12556;55.748;13.194;2022-10-15T06:45:06;13.30;99.90
11772;DHT22;12556;55.748;13.194;2022-10-15T06:47:34;13.30;99.90
11772;DHT22;12556;55.748;13.194;2022-10-15T06:50:03;13.30;99.90
11772;DHT22;12556;55.748;13.194;2022-10-15T06:52:31;13.30;99.90
11772;DHT22;12556;55.748;13.194;2022-10-15T06:54:58;13.30;99.90
11772;DHT22;12556;55.748;13.194;2022-10-15T06:57:26;13.40;99.90
11772;DHT22;12556;55.748;13.194;2022-10-15T06:59:53;13.30;99.90
11772;DHT22;12556;55.748;13.194;2022-10-15T07:02:20;13.30;99.90
11772;DHT22;12556;55.748;13.194;2022-10-15T07:04:47;13.30;99.90
11772;DHT22;12556;55.748;13.194;2022-10-15T07:07:15;13.40;99.90
11772;DHT22;12556;55.748;13.194;2022-10-15T07:09:42;13.40;99.90
11772;DHT22;12556;55.748;13.194;2022-10-15T07:12:11;13.40;99.90
11772;DHT22;12556;55.748;13.194;2022-10-15T07:14:38;13.40;99.90
11772;DHT22;12556;55.748;13.194;2022-10-15T07:17:05;13.40;99.90
11772;DHT22;12556;55.748;13.194;2022-10-15T07:19:33;13.50;99.90
11772;DHT22;12556;55.748;13.194;2022-10-15T07:22:00;13.40;99.90
11772;DHT22;12556;55.748;13.194;2022-10-15T07:24:28;13.50;99.90
11772;DHT22;12556;55.748;13.194;2022-10-15T07:26:55;13.50;99.90
11772;DHT22;12556;55.748;13.194;2022-10-15T07:29:22;13.50;99.90
11772;DHT22;12556;55.748;13.194;2022-10-15T07:31:49;13.50;99.90
11772;DHT22;12556;55.748;13.194;2022-10-15T07:34:16;13.50;99.90
11772;DHT22;12556;55.748;13.194;2022-10-15T07:36:43;13.50;99.90
11772;DHT22;12556;55.748;13.194;2022-10-15T07:39:10;13.60;99.90
11772;DHT22;12556;55.748;13.194;2022-10-15T07:41:38;13.60;99.90
11772;DHT22;12556;55.748;13.194;2022-10-15T07:44:05;13.60;99.90
11772;DHT22;12556;55.748;13.194;2022-10-15T07:46:32;13.60;99.90
11772;DHT22;12556;55.748;13.194;2022-10-15T07:49:01;13.70;99.90
11772;DHT22;12556;55.748;13.194;2022-10-15T07:51:28;13.70;99.90
11772;DHT22;12556;55.748;13.194;2022-10-15T07:53:55;13.70;99.90
11772;DHT22;12556;55.748;13.194;2022-10-15T07:56:22;13.70;99.90
11772;DHT22;12556;55.748;13.194;2022-10-15T07:58:50;13.70;99.90
11772;DHT22;12556;55.748;13.194;2022-10-15T08:01:18;13.70;99.90
11772;DHT22;12556;55.748;13.194;2022-10-15T08:03:45;13.70;99.90
11772;DHT22;12556;55.748;13.194;2022-10-15T08:06:12;13.80;99.90
11772;DHT22;12556;55.748;13.194;2022-10-15T08:08:39;13.80;99.90
11772;DHT22;12556;55.748;13.194;2022-10-15T08:11:07;13.80;99.90
11772;DHT22;12556;55.748;13.194;2022-10-15T08:13:35;13.80;99.90
11772;DHT22;12556;55.748;13.194;2022-10-15T08:16:05;13.80;99.90
11772;DHT22;12556;55.748;13.194;2022-10-15T08:18:32;13.80;99.90
11772;DHT22;12556;55.748;13.194;2022-10-15T08:20:59;13.90;99.90
11772;DHT22;12556;55.748;13.194;2022-10-15T08:23:26;13.90;99.90
11772;DHT22;12556;55.748;13.194;2022-10-15T08:25:53;13.90;99.90
11772;DHT22;12556;55.748;13.194;2022-10-15T08:28:22;13.90;99.90
11772;DHT22;12556;55.748;13.194;2022-10-15T08:30:49;13.90;99.90
11772;DHT22;12556;55.748;13.194;2022-10-15T08:33:18;14.60;99.90
11772;DHT22;12556;55.748;13.194;2022-10-15T08:35:44;13.90;99.90
11772;DHT22;12556;55.748;13.194;2022-10-15T08:38:11;13.90;99.90
11772;DHT22;12556;55.748;13.194;2022-10-15T08:40:39;13.90;99.90
11772;DHT22;12556;55.748;13.194;2022-10-15T08:43:16;14.00;99.90
11772;DHT22;12556;55.748;13.194;2022-10-15T08:45:45;14.00;99.90
11772;DHT22;12556;55.748;13.194;2022-10-15T08:48:19;14.00;99.90
11772;DHT22;12556;55.748;13.194;2022-10-15T08:50:53;14.00;99.90
11772;DHT22;12556;55.748;13.194;2022-10-15T08:53:22;14.00;99.90
11772;DHT22;12556;55.748;13.194;2022-10-15T08:55:54;14.10;99.90
11772;DHT22;12556;55.748;13.194;2022-10-15T08:58:24;14.10;99.90
11772;DHT22;12556;55.748;13.194;2022-10-15T09:00:57;14.20;99.90
11772;DHT22;12556;55.748;13.194;2022-10-15T09:03:35;14.20;99.90
11772;DHT22;12556;55.748;13.194;2022-10-15T09:06:10;14.30;99.90
11772;DHT22;12556;55.748;13.194;2022-10-15T09:08:47;14.40;99.90
11772;DHT22;12556;55.748;13.194;2022-10-15T09:11:22;14.50;99.90
11772;DHT22;12556;55.748;13.194;2022-10-15T09:13:50;14.60;99.90
11772;DHT22;12556;55.748;13.194;2022-10-15T09:16:21;14.60;99.90
11772;DHT22;12556;55.748;13.194;2022-10-15T09:18:51;14.70;99.90
11772;DHT22;12556;55.748;13.194;2022-10-15T09:21:19;14.70;99.90
11772;DHT22;12556;55.748;13.194;2022-10-15T09:23:48;14.80;99.90
11772;DHT22;12556;55.748;13.194;2022-10-15T09:26:26;14.80;99.90
11772;DHT22;12556;55.748;13.194;2022-10-15T09:29:00;14.90;99.90
11772;DHT22;12556;55.748;13.194;2022-10-15T09:31:31;14.90;99.90
11772;DHT22;12556;55.748;13.194;2022-10-15T09:34:04;14.90;99.90
11772;DHT22;12556;55.748;13.194;2022-10-15T09:36:36;15.00;99.90
11772;DHT22;12556;55.748;13.194;2022-10-15T09:39:19;15.00;99.90
11772;DHT22;12556;55.748;13.194;2022-10-15T09:42:03;15.10;99.90
11772;DHT22;12556;55.748;13.194;2022-10-15T09:44:36;15.20;99.90
11772;DHT22;12556;55.748;13.194;2022-10-15T09:47:14;15.20;99.90
11772;DHT22;12556;55.748;13.194;2022-10-15T09:49:42;15.20;99.90
11772;DHT22;12556;55.748;13.194;2022-10-15T09:52:15;15.20;99.90
11772;DHT22;12556;55.748;13.194;2022-10-15T09:54:50;15.20;99.90
11772;DHT22;12556;55.748;13.194;2022-10-15T09:57:20;15.20;99.90
11772;DHT22;12556;55.748;13.194;2022-10-15T09:59:52;15.30;99.90
11772;DHT22;12556;55.748;13.194;2022-10-15T10:02:20;15.30;99.90
11772;DHT22;12556;55.748;13.194;2022-10-15T10:04:50;15.30;99.90
11772;DHT22;12556;55.748;13.194;2022-10-15T10:07:28;15.30;99.90
11772;DHT22;12556;55.748;13.194;2022-10-15T10:09:57;15.30;99.90
11772;DHT22;12556;55.748;13.194;2022-10-15T10:12:28;15.20;99.90
11772;DHT22;12556;55.748;13.194;2022-10-15T10:14:58;15.30;99.90
11772;DHT22;12556;55.748;13.194;2022-10-15T10:17:27;15.30;99.90
11772;DHT22;12556;55.748;13.194;2022-10-15T10:20:19;15.40;99.90
11772;DHT22;12556;55.748;13.194;2022-10-15T10:22:48;15.50;99.90
11772;DHT22;12556;55.748;13.194;2022-10-15T10:25:32;15.60;99.90
11772;DHT22;12556;55.748;13.194;2022-10-15T10:28:05;15.60;99.90
11772;DHT22;12556;55.748;13.194;2022-10-15T10:30:47;15.70;99.90
11772;DHT22;12556;55.748;13.194;2022-10-15T10:33:23;15.80;99.90
11772;DHT22;12556;55.748;13.194;2022-10-15T10:35:52;15.90;99.90
11772;DHT22;12556;55.748;13.194;2022-10-15T10:38:21;15.90;99.90
11772;DHT22;12556;55.748;13.194;2022-10-15T10:40:52;15.90;99.90
11772;DHT22;12556;55.748;13.194;2022-10-15T10:43:24;16.00;99.90
11772;DHT22;12556;55.748;13.194;2022-10-15T10:45:58;16.00;99.90
11772;DHT22;12556;55.748;13.194;2022-10-15T10:48:26;16.00;99.90
11772;DHT22;12556;55.748;13.194;2022-10-15T10:51:04;16.10;99.90
11772;DHT22;12556;55.748;13.194;2022-10-15T10:53:33;16.20;99.90
11772;DHT22;12556;55.748;13.194;2022-10-15T10:56:04;16.20;99.90
11772;DHT22;12556;55.748;13.194;2022-10-15T10:58:33;16.20;99.90
11772;DHT22;12556;55.748;13.194;2022-10-15T11:01:00;16.20;99.90
11772;DHT22;12556;55.748;13.194;2022-10-15T11:03:33;16.30;99.90
11772;DHT22;12556;55.748;13.194;2022-10-15T11:06:19;16.30;99.90
11772;DHT22;12556;55.748;13.194;2022-10-15T11:08:58;16.20;99.90
11772;DHT22;12556;55.748;13.194;2022-10-15T11:11:30;16.10;99.90
11772;DHT22;12556;55.748;13.194;2022-10-15T11:14:07;16.10;99.90
11772;DHT22;12556;55.748;13.194;2022-10-15T11:16:47;16.10;99.90
11772;DHT22;12556;55.748;13.194;2022-10-15T11:19:24;16.00;99.90
11772;DHT22;12556;55.748;13.194;2022-10-15T11:22:07;16.00;99.90
11772;DHT22;12556;55.748;13.194;2022-10-15T11:24:43;15.90;99.90
11772;DHT22;12556;55.748;13.194;2022-10-15T11:27:20;15.90;99.90
11772;DHT22;12556;55.748;13.194;2022-10-15T11:29:56;15.90;99.90
11772;DHT22;12556;55.748;13.194;2022-10-15T11:32:36;15.90;99.90
11772;DHT22;12556;55.748;13.194;2022-10-15T11:35:22;15.90;99.90
11772;DHT22;12556;55.748;13.194;2022-10-15T11:38:07;15.90;99.90
11772;DHT22;12556;55.748;13.194;2022-10-15T11:40:46;15.90;99.90
11772;DHT22;12556;55.748;13.194;2022-10-15T11:43:27;15.90;99.90
11772;DHT22;12556;55.748;13.194;2022-10-15T11:46:06;15.90;99.90
11772;DHT22;12556;55.748;13.194;2022-10-15T11:48:44;15.90;99.90
11772;DHT22;12556;55.748;13.194;2022-10-15T11:51:21;15.90;99.90
11772;DHT22;12556;55.748;13.194;2022-10-15T11:54:04;15.90;99.90
11772;DHT22;12556;55.748;13.194;2022-10-15T11:56:36;15.90;99.90
11772;DHT22;12556;55.748;13.194;2022-10-15T11:59:16;15.90;99.90
11772;DHT22;12556;55.748;13.194;2022-10-15T12:01:48;15.90;99.90
11772;DHT22;12556;55.748;13.194;2022-10-15T12:04:19;15.80;99.90
11772;DHT22;12556;55.748;13.194;2022-10-15T12:06:52;15.80;99.90
11772;DHT22;12556;55.748;13.194;2022-10-15T12:09:26;15.80;99.90
11772;DHT22;12556;55.748;13.194;2022-10-15T12:11:59;15.80;99.90
11772;DHT22;12556;55.748;13.194;2022-10-15T12:14:32;15.80;99.90
11772;DHT22;12556;55.748;13.194;2022-10-15T12:17:06;15.90;99.90
11772;DHT22;12556;55.748;13.194;2022-10-15T12:19:39;15.90;99.90
11772;DHT22;12556;55.748;13.194;2022-10-15T12:22:08;15.80;99.90
11772;DHT22;12556;55.748;13.194;2022-10-15T12:24:54;15.80;99.90
11772;DHT22;12556;55.748;13.194;2022-10-15T12:27:32;15.80;99.90
11772;DHT22;12556;55.748;13.194;2022-10-15T12:30:22;15.80;99.90
11772;DHT22;12556;55.748;13.194;2022-10-15T12:32:51;15.80;99.90
11772;DHT22;12556;55.748;13.194;2022-10-15T12:35:25;15.70;99.90
11772;DHT22;12556;55.748;13.194;2022-10-15T12:38:11;15.70;99.90
11772;DHT22;12556;55.748;13.194;2022-10-15T12:40:45;15.60;99.90
11772;DHT22;12556;55.748;13.194;2022-10-15T12:43:14;15.60;99.90
11772;DHT22;12556;55.748;13.194;2022-10-15T12:45:49;15.70;99.90
11772;DHT22;12556;55.748;13.194;2022-10-15T12:48:27;15.70;99.90
11772;DHT22;12556;55.748;13.194;2022-10-15T13:00:45;15.70;99.90
11772;DHT22;12556;55.748;13.194;2022-10-15T13:03:36;15.60;99.90
11772;DHT22;12556;55.748;13.194;2022-10-15T13:06:20;15.60;99.90
11772;DHT22;12556;55.748;13.194;2022-10-15T13:08:50;15.60;99.90
11772;DHT22;12556;55.748;13.194;2022-10-15T13:11:21;15.50;99.90
11772;DHT22;12556;55.748;13.194;2022-10-15T13:13:51;15.50;99.90
11772;DHT22;12556;55.748;13.194;2022-10-15T13:16:21;15.50;99.90
11772;DHT22;12556;55.748;13.194;2022-10-15T13:18:50;15.50;99.90
11772;DHT22;12556;55.748;13.194;2022-10-15T13:21:17;15.50;99.90
11772;DHT22;12556;55.748;13.194;2022-10-15T13:23:46;15.60;99.90
11772;DHT22;12556;55.748;13.194;2022-10-15T13:26:19;15.60;99.90
11772;DHT22;12556;55.748;13.194;2022-10-15T13:28:47;15.60;99.90
11772;DHT22;12556;55.748;13.194;2022-10-15T13:31:20;15.70;99.90
11772;DHT22;12556;55.748;13.194;2022-10-15T13:33:50;15.60;99.90
11772;DHT22;12556;55.748;13.194;2022-10-15T13:36:20;15.60;99.90
11772;DHT22;12556;55.748;13.194;2022-10-15T13:38:56;15.60;99.90
11772;DHT22;12556;55.748;13.194;2022-10-15T13:41:25;15.60;99.90
11772;DHT22;12556;55.748;13.194;2022-10-15T13:43:53;15.60;99.90
11772;DHT22;12556;55.748;13.194;2022-10-15T13:46:25;15.60;99.90
11772;DHT22;12556;55.748;13.194;2022-10-15T13:48:56;15.60;99.90
11772;DHT22;12556;55.748;13.194;2022-10-15T13:51:30;14.80;99.90
11772;DHT22;12556;55.748;13.194;2022-10-15T13:53:58;15.60;99.90
11772;DHT22;12556;55.748;13.194;2022-10-15T13:56:28;15.50;99.90
11772;DHT22;12556;55.748;13.194;2022-10-15T13:58:56;15.60;99.90
11772;DHT22;12556;55.748;13.194;2022-10-15T14:01:25;15.60;99.90
11772;DHT22;12556;55.748;13.194;2022-10-15T14:03:54;15.60;99.90
11772;DHT22;12556;55.748;13.194;2022-10-15T14:06:22;15.50;99.90
11772;DHT22;12556;55.748;13.194;2022-10-15T14:08:51;15.30;99.90
11772;DHT22;12556;55.748;13.194;2022-10-15T14:11:19;15.50;99.90
11772;DHT22;12556;55.748;13.194;2022-10-15T14:13:47;15.50;99.90
11772;DHT22;12556;55.748;13.194;2022-10-15T14:16:19;15.60;99.90
11772;DHT22;12556;55.748;13.194;2022-10-15T14:18:49;15.60;99.90
11772;DHT22;12556;55.748;13.194;2022-10-15T14:21:18;15.60;99.90
11772;DHT22;12556;55.748;13.194;2022-10-15T14:23:47;15.70;99.90
11772;DHT22;12556;55.748;13.194;2022-10-15T14:26:14;15.70;99.90
11772;DHT22;12556;55.748;13.194;2022-10-15T14:28:49;15.70;99.90
11772;DHT22;12556;55.748;13.194;2022-10-15T14:31:32;15.70;99.90
11772;DHT22;12556;55.748;13.194;2022-10-15T14:34:04;15.60;99.90
11772;DHT22;12556;55.748;13.194;2022-10-15T14:36:39;15.60;99.90
11772;DHT22;12556;55.748;13.194;2022-10-15T14:39:24;15.60;99.90
11772;DHT22;12556;55.748;13.194;2022-10-15T14:41:56;15.60;99.90
11772;DHT22;12556;55.748;13.194;2022-10-15T14:44:23;15.60;99.90
11772;DHT22;12556;55.748;13.194;2022-10-15T14:46:51;15.50;99.90
11772;DHT22;12556;55.748;13.194;2022-10-15T14:49:28;15.50;99.90
11772;DHT22;12556;55.748;13.194;2022-10-15T14:51:59;15.50;99.90
11772;DHT22;12556;55.748;13.194;2022-10-15T14:54:34;15.40;99.90
11772;DHT22;12556;55.748;13.194;2022-10-15T14:57:02;15.40;99.90
11772;DHT22;12556;55.748;13.194;2022-10-15T14:59:33;15.40;99.90
11772;DHT22;12556;55.748;13.194;2022-10-15T15:02:04;15.30;99.90
11772;DHT22;12556;55.748;13.194;2022-10-15T15:04:40;16.10;99.90
11772;DHT22;12556;55.748;13.194;2022-10-15T15:07:12;15.30;99.90
11772;DHT22;12556;55.748;13.194;2022-10-15T15:09:39;15.20;99.90
11772;DHT22;12556;55.748;13.194;2022-10-15T15:12:13;15.20;99.90
11772;DHT22;12556;55.748;13.194;2022-10-15T15:14:41;15.10;99.90
11772;DHT22;12556;55.748;13.194;2022-10-15T15:17:13;15.00;99.90
11772;DHT22;12556;55.748;13.194;2022-10-15T15:19:43;15.00;99.90
11772;DHT22;12556;55.748;13.194;2022-10-15T15:22:12;14.90;99.90
11772;DHT22;12556;55.748;13.194;2022-10-15T15:24:40;14.80;99.90
11772;DHT22;12556;55.748;13.194;2022-10-15T15:27:12;14.70;99.90
11772;DHT22;12556;55.748;13.194;2022-10-15T15:29:44;14.60;99.90
11772;DHT22;12556;55.748;13.194;2022-10-15T15:32:10;14.60;99.90
11772;DHT22;12556;55.748;13.194;2022-10-15T15:34:38;14.50;99.90
11772;DHT22;12556;55.748;13.194;2022-10-15T15:37:12;14.40;99.90
11772;DHT22;12556;55.748;13.194;2022-10-15T15:39:39;14.30;99.90
11772;DHT22;12556;55.748;13.194;2022-10-15T15:42:07;14.30;99.90
11772;DHT22;12556;55.748;13.194;2022-10-15T15:44:34;14.20;99.90
11772;DHT22;12556;55.748;13.194;2022-10-15T15:47:01;14.20;99.90
11772;DHT22;12556;55.748;13.194;2022-10-15T15:49:28;14.10;99.90
11772;DHT22;12556;55.748;13.194;2022-10-15T15:51:55;14.10;99.90